Time;durP1;ratioP1;P1;durP2;ratioP2;P2;SDS_P1;SDS_P2;PMS_P1;PMS_P2;Temp;Humidity;BMP_temperature;BMP_pressure;BME280_temperature;BME280_humidity;BME280_pressure;Samples;Min_cycle;Max_cycle;Signal;HPM_P1;HPM_P2
2021/08/15 00:01:31;;;;;;;29.15;22.15;;;17.30;85.50;;;;;;5096084;28;20042;-78
2021/08/15 00:03:57;;;;;;;27.08;21.92;;;17.20;85.60;;;;;;5079585;28;20082;-78
2021/08/15 00:06:23;;;;;;;33.50;23.38;;;17.20;85.90;;;;;;5113254;28;20045;-82
2021/08/15 00:08:49;;;;;;;30.23;22.98;;;17.10;86.30;;;;;;5096846;28;20035;-77
2021/08/15 00:11:15;;;;;;;27.85;20.63;;;17.10;86.40;;;;;;5079833;28;20030;-77
2021/08/15 00:13:40;;;;;;;28.08;21.35;;;17.00;86.60;;;;;;5096218;28;20061;-77
2021/08/15 00:16:06;;;;;;;29.10;21.00;;;17.00;86.80;;;;;;5079534;28;20032;-77
2021/08/15 00:18:32;;;;;;;26.17;20.05;;;17.00;86.90;;;;;;5113167;28;20386;-77
2021/08/15 00:20:58;;;;;;;30.13;20.08;;;16.90;87.00;;;;;;5113512;28;20119;-77
2021/08/15 00:23:23;;;;;;;27.95;20.38;;;16.90;87.10;;;;;;5079439;28;20036;-83
2021/08/15 00:25:49;;;;;;;27.63;20.00;;;16.90;87.10;;;;;;5096236;28;20036;-78
2021/08/15 00:28:14;;;;;;;28.13;20.42;;;16.90;87.30;;;;;;5096237;28;20030;-77
2021/08/15 00:30:40;;;;;;;27.98;20.50;;;16.90;87.40;;;;;;5112934;28;20047;-77
2021/08/15 00:33:06;;;;;;;31.23;20.40;;;16.90;87.50;;;;;;5114250;28;20027;-77
2021/08/15 00:35:31;;;;;;;32.92;21.50;;;16.80;87.50;;;;;;5112244;28;20492;-78
2021/08/15 00:37:57;;;;;;;25.65;19.23;;;16.80;87.70;;;;;;5113241;28;20085;-77
2021/08/15 00:40:23;;;;;;;28.48;19.67;;;16.80;87.80;;;;;;5096179;28;20047;-78
2021/08/15 00:42:48;;;;;;;29.45;19.75;;;16.80;87.90;;;;;;5095445;28;20042;-78
2021/08/15 00:45:14;;;;;;;27.48;19.50;;;16.80;87.90;;;;;;5113675;28;20024;-78
2021/08/15 00:47:40;;;;;;;28.63;20.55;;;16.80;87.80;;;;;;5112649;28;20038;-79
2021/08/15 00:50:06;;;;;;;27.88;20.48;;;16.80;87.90;;;;;;5095843;28;20055;-80
2021/08/15 00:52:32;;;;;;;30.48;19.63;;;16.70;87.90;;;;;;5095268;28;20034;-78
2021/08/15 00:54:59;;;;;;;31.17;20.45;;;16.70;88.00;;;;;;5112698;28;20023;-78
2021/08/15 00:57:28;;;;;;;27.52;19.60;;;16.70;88.20;;;;;;5114096;28;20028;-78
2021/08/15 00:59:54;;;;;;;28.63;20.60;;;16.70;88.30;;;;;;5110503;28;20066;-77
2021/08/15 01:02:20;;;;;;;26.33;19.23;;;16.70;88.40;;;;;;5094246;28;20626;-78
2021/08/15 01:04:46;;;;;;;24.95;19.15;;;16.60;88.60;;;;;;5093658;28;20113;-79
2021/08/15 01:07:12;;;;;;;27.77;18.65;;;16.60;88.60;;;;;;5110823;28;20045;-79
2021/08/15 01:09:39;;;;;;;27.52;20.08;;;16.60;88.70;;;;;;5093248;28;20498;-80
2021/08/15 01:12:06;;;;;;;28.67;18.42;;;16.60;88.70;;;;;;5094309;28;20084;-78
2021/08/15 01:14:31;;;;;;;28.77;18.75;;;16.60;88.80;;;;;;5110676;28;20019;-83
2021/08/15 01:16:57;;;;;;;27.52;19.42;;;16.50;88.70;;;;;;5102501;28;20031;-78
2021/08/15 01:19:29;;;;;;;25.90;19.38;;;16.50;88.80;;;;;;5112157;28;20034;-77
2021/08/15 01:21:55;;;;;;;26.13;18.15;;;16.50;88.90;;;;;;5112467;28;20016;-79
2021/08/15 01:24:20;;;;;;;26.48;18.75;;;16.50;88.90;;;;;;5111957;28;20474;-78
2021/08/15 01:26:47;;;;;;;27.63;18.60;;;16.50;89.10;;;;;;5111567;28;20028;-79
2021/08/15 01:29:13;;;;;;;27.02;18.50;;;16.50;89.20;;;;;;5111375;28;20087;-79
2021/08/15 01:31:39;;;;;;;25.75;18.55;;;16.50;89.30;;;;;;5111304;28;20507;-79
2021/08/15 01:34:04;;;;;;;27.88;19.67;;;16.50;89.30;;;;;;5111671;28;20073;-78
2021/08/15 01:36:30;;;;;;;31.27;19.88;;;16.40;89.30;;;;;;5113277;28;20042;-79
2021/08/15 01:38:56;;;;;;;26.70;18.95;;;16.40;89.60;;;;;;5094505;28;20499;-79
2021/08/15 01:41:22;;;;;;;33.00;20.73;;;16.30;89.80;;;;;;5111532;28;20023;-78
2021/08/15 01:43:57;;;;;;;27.35;20.63;;;16.30;90.00;;;;;;5110664;28;20112;-77
2021/08/15 01:46:25;;;;;;;30.33;20.85;;;16.20;90.00;;;;;;5111226;28;20364;-77
2021/08/15 01:48:51;;;;;;;29.23;20.50;;;16.20;90.10;;;;;;5110820;28;20372;-77
2021/08/15 01:51:18;;;;;;;28.23;19.17;;;16.20;90.10;;;;;;5110577;28;20027;-78
2021/08/15 01:53:45;;;;;;;26.90;18.58;;;16.20;90.20;;;;;;5093131;28;20089;-77
2021/08/15 01:56:11;;;;;;;28.75;19.98;;;16.20;90.20;;;;;;5093392;28;20051;-77
2021/08/15 01:58:36;;;;;;;28.83;19.75;;;16.10;90.20;;;;;;5109753;28;20502;-84
2021/08/15 02:01:03;;;;;;;29.25;19.52;;;16.10;90.30;;;;;;5110969;28;20032;-79
2021/08/15 02:03:29;;;;;;;29.25;19.48;;;16.10;90.30;;;;;;5110294;28;20402;-79
2021/08/15 02:05:54;;;;;;;25.55;18.60;;;16.10;90.40;;;;;;5109793;28;20031;-78
2021/08/15 02:08:20;;;;;;;26.33;20.65;;;16.00;90.50;;;;;;5110088;28;20383;-77
2021/08/15 02:10:46;;;;;;;25.77;19.10;;;16.00;90.50;;;;;;5092456;28;20035;-77
2021/08/15 02:13:12;;;;;;;30.50;19.67;;;16.00;90.60;;;;;;5093473;28;20459;-77
2021/08/15 02:15:38;;;;;;;29.13;19.92;;;16.00;90.70;;;;;;5092607;28;20059;-84
2021/08/15 02:18:04;;;;;;;25.48;18.35;;;16.00;90.70;;;;;;5111596;28;20062;-78
2021/08/15 02:20:32;;;;;;;24.70;19.13;;;16.00;90.70;;;;;;5110483;28;20028;-77
2021/08/15 02:22:58;;;;;;;26.00;19.02;;;16.00;90.70;;;;;;5096515;28;20020;-77
2021/08/15 02:25:24;;;;;;;24.52;17.23;;;16.00;90.70;;;;;;5110236;28;20030;-78
2021/08/15 02:27:50;;;;;;;25.55;19.55;;;16.00;90.70;;;;;;5109696;28;20031;-79
2021/08/15 02:30:18;;;;;;;24.05;17.40;;;16.00;90.70;;;;;;5109888;28;20066;-79
2021/08/15 02:32:44;;;;;;;23.75;17.67;;;16.00;90.70;;;;;;5109709;28;20072;-78
2021/08/15 02:35:12;;;;;;;25.55;18.90;;;16.00;90.70;;;;;;5112184;28;20039;-79
2021/08/15 02:37:39;;;;;;;26.50;18.77;;;16.00;90.70;;;;;;5110928;28;20023;-82
2021/08/15 02:40:08;;;;;;;24.40;18.88;;;15.90;90.80;;;;;;5094149;28;20147;-77
2021/08/15 02:42:37;;;;;;;26.92;18.48;;;15.90;90.80;;;;;;5111726;28;20023;-78
2021/08/15 02:45:05;;;;;;;27.50;19.45;;;15.90;90.90;;;;;;5110879;28;20089;-77
2021/08/15 02:47:31;;;;;;;22.77;17.20;;;15.90;90.90;;;;;;5110992;28;20119;-76
2021/08/15 02:49:56;;;;;;;27.33;17.92;;;15.90;90.90;;;;;;5093592;28;20174;-79
2021/08/15 02:52:22;;;;;;;27.00;18.00;;;15.90;90.90;;;;;;5110903;28;20048;-78
2021/08/15 02:54:48;;;;;;;22.27;17.45;;;15.90;90.90;;;;;;5112418;28;20512;-78
2021/08/15 02:57:14;;;;;;;25.15;17.83;;;15.90;90.90;;;;;;5111214;28;20055;-78
2021/08/15 02:59:39;;;;;;;27.48;20.42;;;15.90;90.90;;;;;;5111343;28;20161;-78
2021/08/15 03:02:16;;;;;;;25.45;17.48;;;15.80;91.00;;;;;;5112210;28;20040;-77
2021/08/15 03:04:43;;;;;;;24.55;17.13;;;15.80;91.10;;;;;;5111485;28;20032;-79
2021/08/15 03:07:10;;;;;;;23.55;17.50;;;15.80;91.10;;;;;;5111673;28;20035;-77
2021/08/15 03:09:36;;;;;;;31.50;20.58;;;15.80;91.10;;;;;;5112982;28;20031;-79
2021/08/15 03:12:02;;;;;;;24.67;17.05;;;15.80;91.10;;;;;;5110712;28;20098;-76
2021/08/15 03:14:28;;;;;;;23.75;17.15;;;15.70;91.10;;;;;;5094050;28;20028;-76
2021/08/15 03:16:53;;;;;;;23.83;17.85;;;15.70;91.20;;;;;;5094024;28;20038;-78
2021/08/15 03:19:19;;;;;;;25.73;18.25;;;15.70;91.20;;;;;;5094141;28;20460;-82
2021/08/15 03:21:46;;;;;;;24.63;18.48;;;15.70;91.20;;;;;;5095624;28;20122;-79
2021/08/15 03:24:11;;;;;;;23.05;16.60;;;15.70;91.20;;;;;;5098370;28;20042;-78
2021/08/15 03:26:38;;;;;;;24.67;16.80;;;15.60;91.20;;;;;;5115255;28;20016;-77
2021/08/15 03:29:04;;;;;;;26.92;17.45;;;15.60;91.30;;;;;;5114947;28;20051;-77
2021/08/15 03:31:30;;;;;;;25.40;18.40;;;15.60;91.30;;;;;;5080528;28;20056;-76
2021/08/15 03:33:56;;;;;;;24.48;16.42;;;15.60;91.30;;;;;;5115513;28;20050;-77
2021/08/15 03:36:21;;;;;;;23.17;15.52;;;15.60;91.30;;;;;;5115848;28;20100;-77
2021/08/15 03:38:47;;;;;;;22.95;16.50;;;15.60;91.30;;;;;;5116097;28;20031;-77
2021/08/15 03:41:12;;;;;;;22.83;16.85;;;15.60;91.30;;;;;;5115927;28;20107;-77
2021/08/15 03:43:38;;;;;;;23.15;16.45;;;15.60;91.20;;;;;;5114526;28;20122;-77
2021/08/15 03:46:04;;;;;;;21.98;15.65;;;15.60;91.30;;;;;;5114698;28;20030;-78
2021/08/15 03:48:29;;;;;;;26.02;17.00;;;15.60;91.30;;;;;;5114667;28;20028;-80
2021/08/15 03:50:55;;;;;;;24.75;16.60;;;15.60;91.30;;;;;;5097909;28;20020;-77
2021/08/15 03:53:21;;;;;;;23.95;16.77;;;15.60;91.30;;;;;;5114634;28;20107;-77
2021/08/15 03:55:46;;;;;;;21.73;16.13;;;15.50;91.30;;;;;;5097859;28;20028;-76
2021/08/15 03:58:12;;;;;;;22.60;15.93;;;15.50;91.40;;;;;;5097235;28;20028;-77
2021/08/15 04:00:41;;;;;;;20.95;15.57;;;15.50;91.40;;;;;;5115227;28;20030;-77
2021/08/15 04:03:11;;;;;;;23.42;15.95;;;15.40;91.50;;;;;;5096926;28;20441;-77
2021/08/15 04:05:37;;;;;;;23.10;16.52;;;15.50;91.50;;;;;;5115569;28;20043;-76
2021/08/15 04:08:05;;;;;;;21.05;15.63;;;15.50;91.50;;;;;;5113773;28;20055;-77
2021/08/15 04:10:31;;;;;;;21.90;16.45;;;15.50;91.50;;;;;;5113968;28;20459;-77
2021/08/15 04:12:57;;;;;;;20.10;14.95;;;15.40;91.50;;;;;;5113846;28;20363;-78
2021/08/15 04:15:23;;;;;;;24.10;15.02;;;15.50;91.50;;;;;;5097040;28;20122;-77
2021/08/15 04:17:48;;;;;;;23.17;16.20;;;15.50;91.50;;;;;;5113724;28;20028;-77
2021/08/15 04:20:14;;;;;;;23.85;15.68;;;15.50;91.50;;;;;;5112993;28;20059;-77
2021/08/15 04:22:39;;;;;;;22.55;14.52;;;15.50;91.50;;;;;;5114611;28;20053;-77
2021/08/15 04:25:06;;;;;;;21.63;14.52;;;15.50;91.50;;;;;;5112634;28;20032;-77
2021/08/15 04:27:32;;;;;;;21.65;15.18;;;15.50;91.50;;;;;;5113164;28;20019;-78
2021/08/15 04:29:57;;;;;;;17.30;12.50;;;15.60;91.40;;;;;;5111405;28;20384;-78
2021/08/15 04:32:23;;;;;;;22.35;14.90;;;15.60;91.40;;;;;;5111661;28;20023;-77
2021/08/15 04:34:49;;;;;;;23.23;14.50;;;15.70;91.40;;;;;;5094824;28;20101;-78
2021/08/15 04:37:17;;;;;;;22.23;14.77;;;15.70;91.30;;;;;;5111891;28;20562;-78
2021/08/15 04:39:43;;;;;;;21.60;13.43;;;15.80;91.30;;;;;;5095558;28;20031;-78
2021/08/15 04:42:09;;;;;;;23.17;14.02;;;15.90;91.20;;;;;;5095162;28;20029;-76
2021/08/15 04:44:35;;;;;;;20.60;13.52;;;15.90;91.10;;;;;;5114518;28;20379;-77
2021/08/15 04:47:00;;;;;;;18.55;13.57;;;16.00;91.00;;;;;;5102221;28;20484;-77
2021/08/15 04:49:26;;;;;;;20.48;13.98;;;16.10;90.90;;;;;;5092619;28;20172;-78
2021/08/15 04:51:54;;;;;;;21.88;13.60;;;16.30;90.80;;;;;;5092555;28;20422;-77
2021/08/15 04:54:23;;;;;;;18.88;13.00;;;16.70;90.50;;;;;;5093471;28;20024;-77
2021/08/15 04:56:49;;;;;;;18.75;13.15;;;16.90;90.10;;;;;;5092531;28;20032;-77
2021/08/15 04:59:15;;;;;;;19.73;12.73;;;17.30;89.20;;;;;;5058409;28;20035;-77
2021/08/15 05:01:40;;;;;;;22.27;12.55;;;17.60;87.80;;;;;;5075513;28;20057;-78
2021/08/15 05:04:06;;;;;;;21.70;12.23;;;17.90;86.70;;;;;;5074772;28;20055;-77
2021/08/15 05:06:33;;;;;;;17.35;10.93;;;18.00;85.90;;;;;;5075525;28;20028;-76
2021/08/15 05:08:58;;;;;;;17.17;11.20;;;18.00;85.50;;;;;;5074961;28;20031;-85
2021/08/15 05:11:24;;;;;;;17.85;10.88;;;18.10;85.20;;;;;;5093352;28;20100;-78
2021/08/15 05:13:50;;;;;;;22.33;11.52;;;18.50;84.40;;;;;;5091764;28;20034;-77
2021/08/15 05:16:16;;;;;;;17.60;11.25;;;18.60;83.50;;;;;;5075231;28;20031;-77
2021/08/15 05:18:42;;;;;;;15.50;10.00;;;18.50;83.50;;;;;;5093674;28;20024;-79
2021/08/15 05:21:07;;;;;;;16.30;10.65;;;18.40;83.70;;;;;;5093456;28;20030;-77
2021/08/15 05:23:33;;;;;;;15.90;10.35;;;18.40;84.00;;;;;;5093165;28;20039;-78
2021/08/15 05:25:59;;;;;;;15.57;10.45;;;18.40;83.80;;;;;;5091807;28;20020;-81
2021/08/15 05:28:25;;;;;;;16.20;10.65;;;18.40;83.80;;;;;;5094925;28;20020;-78
2021/08/15 05:30:51;;;;;;;14.98;10.35;;;18.40;83.80;;;;;;5100395;28;20371;-78
2021/08/15 05:33:16;;;;;;;14.25;10.35;;;18.50;83.60;;;;;;5096619;28;20392;-78
2021/08/15 05:35:42;;;;;;;16.85;9.48;;;18.40;83.50;;;;;;5092741;28;20036;-78
2021/08/15 05:38:08;;;;;;;20.05;10.65;;;18.50;83.70;;;;;;5074364;28;20034;-78
2021/08/15 05:40:33;;;;;;;17.45;10.43;;;18.60;83.60;;;;;;5095437;28;20114;-77
2021/08/15 05:42:59;;;;;;;15.20;9.98;;;18.90;83.20;;;;;;5111880;28;20114;-84
2021/08/15 05:45:25;;;;;;;17.92;10.05;;;19.40;82.10;;;;;;5111293;28;20111;-77
2021/08/15 05:47:50;;;;;;;13.48;9.18;;;20.00;80.60;;;;;;5078503;28;20466;-79
2021/08/15 05:50:16;;;;;;;11.65;8.45;;;20.30;79.00;;;;;;5094355;28;20425;-77
2021/08/15 05:52:42;;;;;;;16.70;10.10;;;20.60;78.10;;;;;;5111866;28;20461;-78
2021/08/15 05:55:08;;;;;;;13.73;8.95;;;20.40;77.40;;;;;;5111126;28;20459;-78
2021/08/15 05:57:34;;;;;;;12.68;8.82;;;20.20;77.90;;;;;;5094848;28;20032;-77
2021/08/15 06:00:00;;;;;;;13.43;8.63;;;20.20;78.60;;;;;;5111245;28;20035;-78
2021/08/15 06:02:25;;;;;;;17.40;8.75;;;20.70;77.80;;;;;;5110693;28;21855;-79
2021/08/15 06:04:51;;;;;;;13.88;8.98;;;21.70;75.40;;;;;;5111486;28;20039;-80
2021/08/15 06:07:16;;;;;;;12.98;8.05;;;22.20;72.90;;;;;;5112474;28;20459;-77
2021/08/15 06:09:42;;;;;;;14.00;8.20;;;22.40;72.50;;;;;;5111671;28;20028;-77
2021/08/15 06:12:08;;;;;;;15.55;8.73;;;22.50;71.90;;;;;;5094280;28;20034;-79
2021/08/15 06:14:34;;;;;;;10.65;7.15;;;22.40;72.00;;;;;;5112462;28;20072;-78
2021/08/15 06:17:01;;;;;;;12.40;8.40;;;22.70;71.80;;;;;;5092322;28;20035;-77
2021/08/15 06:19:27;;;;;;;10.82;7.22;;;23.20;70.30;;;;;;5090921;28;20058;-78
2021/08/15 06:21:53;;;;;;;11.32;7.45;;;23.70;69.30;;;;;;5081213;28;20123;-79
2021/08/15 06:24:20;;;;;;;11.52;7.07;;;23.90;68.10;;;;;;5094920;28;20070;-77
2021/08/15 06:26:45;;;;;;;10.00;6.97;;;24.40;67.60;;;;;;5112426;28;20032;-79
2021/08/15 06:29:11;;;;;;;9.98;6.75;;;24.70;66.40;;;;;;5110812;28;20027;-78
2021/08/15 06:31:37;;;;;;;10.73;6.55;;;24.60;66.40;;;;;;5089864;28;20028;-77
2021/08/15 06:34:03;;;;;;;10.25;7.10;;;24.10;66.50;;;;;;5073100;28;20067;-77
2021/08/15 06:36:29;;;;;;;10.98;6.47;;;23.80;67.40;;;;;;5105892;28;20047;-78
2021/08/15 06:38:55;;;;;;;10.48;6.82;;;23.90;67.70;;;;;;5111584;28;20032;-77
2021/08/15 06:41:21;;;;;;;11.82;6.53;;;24.20;66.90;;;;;;5109398;28;20479;-77
2021/08/15 06:43:47;;;;;;;17.92;6.85;;;24.40;66.60;;;;;;5110083;28;20111;-77
2021/08/15 06:46:13;;;;;;;9.65;6.15;;;24.70;65.80;;;;;;5108669;28;20043;-78
2021/08/15 06:48:39;;;;;;;11.93;6.72;;;25.20;64.60;;;;;;5093812;28;20028;-76
2021/08/15 06:51:06;;;;;;;11.30;7.30;;;25.40;64.00;;;;;;5109880;28;20383;-75
2021/08/15 06:53:32;;;;;;;12.07;7.18;;;25.80;63.10;;;;;;5104470;28;20082;-77
2021/08/15 06:55:59;;;;;;;10.70;6.80;;;26.40;61.90;;;;;;5091967;28;20020;-77
2021/08/15 06:58:26;;;;;;;14.30;7.05;;;26.70;61.10;;;;;;5093893;28;20032;-78
2021/08/15 07:00:51;;;;;;;11.43;6.75;;;27.30;60.10;;;;;;5093214;28;20047;-79
2021/08/15 07:03:17;;;;;;;10.05;6.22;;;27.70;59.00;;;;;;5104536;28;20043;-78
2021/08/15 07:05:43;;;;;;;8.50;6.22;;;28.20;57.60;;;;;;5094702;28;20028;-75
2021/08/15 07:08:09;;;;;;;10.40;6.10;;;28.20;56.20;;;;;;5077845;28;20031;-80
2021/08/15 07:10:35;;;;;;;10.10;5.57;;;27.80;56.20;;;;;;5103534;28;20052;-77
2021/08/15 07:13:07;;;;;;;8.90;5.90;;;27.30;57.50;;;;;;5114307;28;20059;-78
2021/08/15 07:15:34;;;;;;;8.40;5.88;;;26.80;58.70;;;;;;5112963;28;20786;-78
2021/08/15 07:18:00;;;;;;;13.07;5.80;;;26.70;59.40;;;;;;5115739;28;20030;-77
2021/08/15 07:20:27;;;;;;;11.60;5.97;;;26.60;59.20;;;;;;5114152;28;20085;-78
2021/08/15 07:22:53;;;;;;;9.13;4.88;;;26.60;59.30;;;;;;5114090;28;20018;-77
2021/08/15 07:25:20;;;;;;;7.57;5.55;;;26.60;59.70;;;;;;5114092;28;20098;-77
2021/08/15 07:27:46;;;;;;;15.07;5.20;;;26.70;59.80;;;;;;5114963;28;20028;-77
2021/08/15 07:30:12;;;;;;;11.00;5.05;;;26.70;59.90;;;;;;5112650;28;20032;-81
2021/08/15 07:32:56;;;;;;;10.10;5.22;;;26.80;59.00;;;;;;5112517;28;20016;-76
2021/08/15 07:35:23;;;;;;;8.88;5.60;;;27.10;58.70;;;;;;5113676;28;20036;-77
2021/08/15 07:37:49;;;;;;;11.27;5.50;;;27.40;57.90;;;;;;5113104;28;20053;-77
2021/08/15 07:40:16;;;;;;;8.38;5.60;;;27.20;58.00;;;;;;5112701;28;20051;-80
2021/08/15 07:42:42;;;;;;;10.95;5.18;;;27.00;58.50;;;;;;5116992;28;20072;-79
2021/08/15 07:45:08;;;;;;;9.68;5.25;;;27.10;58.90;;;;;;5110384;28;20038;-77
2021/08/15 07:47:34;;;;;;;9.23;5.38;;;27.70;57.60;;;;;;5081959;28;20741;-78
2021/08/15 07:50:00;;;;;;;8.50;5.10;;;28.20;57.00;;;;;;5098164;28;20039;-78
2021/08/15 07:52:26;;;;;;;10.05;5.10;;;28.60;55.10;;;;;;5116427;28;20020;-80
2021/08/15 07:54:52;;;;;;;7.30;4.65;;;28.90;54.00;;;;;;5114448;28;20027;-77
2021/08/15 07:57:20;;;;;;;9.32;5.40;;;29.10;53.50;;;;;;5096892;28;20031;-82
2021/08/15 07:59:46;;;;;;;11.23;5.85;;;28.80;53.80;;;;;;5113789;28;20023;-78
2021/08/15 08:02:11;;;;;;;11.77;5.50;;;28.20;54.30;;;;;;5097254;28;20074;-77
2021/08/15 08:04:38;;;;;;;12.00;5.57;;;27.60;55.50;;;;;;5088454;28;20031;-82
2021/08/15 08:07:05;;;;;;;10.27;5.20;;;27.30;56.80;;;;;;5109610;28;20031;-78
2021/08/15 08:09:31;;;;;;;6.82;4.65;;;27.30;57.10;;;;;;5069788;28;20118;-78
2021/08/15 08:11:57;;;;;;;9.48;5.00;;;27.40;56.60;;;;;;5111944;28;20126;-77
2021/08/15 08:14:23;;;;;;;8.55;4.93;;;27.50;55.90;;;;;;5096360;28;20036;-76
2021/08/15 08:16:50;;;;;;;8.20;5.03;;;27.60;55.10;;;;;;5095596;28;20035;-76
2021/08/15 08:19:15;;;;;;;9.50;5.47;;;27.60;55.40;;;;;;5104709;28;20040;-77
2021/08/15 08:21:41;;;;;;;9.57;4.53;;;27.80;55.00;;;;;;5106363;28;20023;-77
2021/08/15 08:24:08;;;;;;;9.55;5.15;;;27.90;54.60;;;;;;5111571;28;20063;-77
2021/08/15 08:26:34;;;;;;;9.35;4.78;;;28.10;53.70;;;;;;5112958;28;20084;-78
2021/08/15 08:29:00;;;;;;;7.53;4.60;;;28.50;53.20;;;;;;5100386;28;20024;-77
2021/08/15 08:31:27;;;;;;;11.23;5.38;;;28.80;52.20;;;;;;5112415;28;20032;-77
2021/08/15 08:33:53;;;;;;;6.57;4.53;;;29.40;51.50;;;;;;5112110;28;20076;-77
2021/08/15 08:36:19;;;;;;;6.97;4.70;;;30.20;50.30;;;;;;5092670;28;20040;-77
2021/08/15 08:38:45;;;;;;;6.07;4.28;;;31.00;48.70;;;;;;5108083;28;20046;-78
2021/08/15 08:41:13;;;;;;;7.57;4.38;;;31.80;46.80;;;;;;5106275;28;20043;-77
2021/08/15 08:43:40;;;;;;;7.18;4.35;;;32.20;45.50;;;;;;5111170;28;20042;-78
2021/08/15 08:46:08;;;;;;;7.90;4.57;;;31.70;44.90;;;;;;5114412;28;20023;-77
2021/08/15 08:48:34;;;;;;;7.05;3.90;;;31.20;45.60;;;;;;5114816;28;20055;-77
2021/08/15 08:51:01;;;;;;;7.15;4.13;;;31.00;46.70;;;;;;5096494;28;20447;-77
2021/08/15 08:53:27;;;;;;;6.72;4.05;;;30.80;44.70;;;;;;5112357;28;20039;-82
2021/08/15 08:55:53;;;;;;;7.07;3.63;;;30.70;45.80;;;;;;5091619;28;20035;-77
2021/08/15 08:58:18;;;;;;;6.15;3.88;;;31.00;44.70;;;;;;5100356;28;20027;-77
2021/08/15 09:00:44;;;;;;;5.90;3.10;;;31.20;44.50;;;;;;5111590;28;20036;-77
2021/08/15 09:03:10;;;;;;;4.97;3.20;;;31.70;44.10;;;;;;5095166;28;20043;-78
2021/08/15 09:05:36;;;;;;;6.32;3.25;;;32.10;43.20;;;;;;5104213;28;20032;-77
2021/08/15 09:08:02;;;;;;;5.10;2.85;;;32.80;42.20;;;;;;5090114;28;20028;-76
2021/08/15 09:10:31;;;;;;;6.43;3.35;;;33.30;40.60;;;;;;5097401;28;20012;-83
2021/08/15 09:13:05;;;;;;;5.82;2.90;;;33.30;40.20;;;;;;5094558;28;20464;-77
2021/08/15 09:15:31;;;;;;;5.90;3.38;;;33.20;40.20;;;;;;5106954;28;20028;-78
2021/08/15 09:17:57;;;;;;;5.45;3.30;;;33.20;40.40;;;;;;5113213;28;20028;-77
2021/08/15 09:20:35;;;;;;;6.05;3.10;;;33.30;40.70;;;;;;5099027;28;20028;-78
2021/08/15 09:23:21;;;;;;;6.50;3.45;;;33.40;41.30;;;;;;5092530;28;20027;-77
2021/08/15 09:26:07;;;;;;;3.78;2.65;;;33.80;40.90;;;;;;5093037;28;20480;-78
2021/08/15 09:28:34;;;;;;;4.75;2.83;;;34.30;39.70;;;;;;5102534;28;20055;-77
2021/08/15 09:31:34;;;;;;;4.65;2.47;;;34.70;39.30;;;;;;5093405;28;20032;-77
2021/08/15 09:34:01;;;;;;;4.07;2.28;;;35.00;38.20;;;;;;5103117;28;20046;-77
2021/08/15 09:36:39;;;;;;;4.82;2.47;;;35.20;38.10;;;;;;5108465;28;20495;-80
2021/08/15 09:39:07;;;;;;;5.35;2.15;;;35.20;38.00;;;;;;5097973;28;20035;-77
2021/08/15 09:41:36;;;;;;;3.97;2.50;;;35.00;38.10;;;;;;5097180;28;20077;-78
2021/08/15 09:44:19;;;;;;;3.65;2.53;;;34.90;38.40;;;;;;5109379;28;20035;-78
2021/08/15 09:47:05;;;;;;;3.67;2.13;;;34.40;39.00;;;;;;5111582;28;20028;-77
2021/08/15 09:49:36;;;;;;;4.05;2.35;;;34.00;39.80;;;;;;5109209;28;20024;-82
2021/08/15 09:52:03;;;;;;;4.22;2.92;;;33.90;40.30;;;;;;5110739;28;20020;-78
2021/08/15 09:54:30;;;;;;;4.88;2.55;;;33.90;40.40;;;;;;5110730;28;20107;-79
2021/08/15 09:56:57;;;;;;;4.43;2.60;;;33.90;40.70;;;;;;5109472;28;20131;-78
2021/08/15 09:59:25;;;;;;;3.92;2.33;;;34.20;40.40;;;;;;5072700;28;20111;-76
2021/08/15 10:01:53;;;;;;;3.88;2.13;;;34.80;39.50;;;;;;5100249;28;20142;-77
2021/08/15 10:04:20;;;;;;;3.97;2.17;;;35.30;38.40;;;;;;5100569;28;20052;-82
2021/08/15 10:06:48;;;;;;;4.68;2.70;;;35.50;38.30;;;;;;5103520;28;20478;-77
2021/08/15 10:09:14;;;;;;;3.10;2.00;;;35.70;38.10;;;;;;5104514;28;20490;-76
2021/08/15 10:11:41;;;;;;;3.58;2.35;;;35.80;37.40;;;;;;5107363;28;20027;-76
2021/08/15 10:14:08;;;;;;;4.40;2.15;;;35.80;37.90;;;;;;5108435;28;20118;-77
2021/08/15 10:16:54;;;;;;;7.32;2.35;;;35.90;37.30;;;;;;5108501;28;20020;-83
2021/08/15 10:19:36;;;;;;;4.88;2.30;;;36.00;37.20;;;;;;5089674;28;20031;-78
2021/08/15 10:22:02;;;;;;;5.70;2.50;;;36.00;37.90;;;;;;5097536;28;20084;-80
2021/08/15 10:24:49;;;;;;;5.00;2.10;;;36.20;38.00;;;;;;5061683;28;20445;-77
2021/08/15 10:27:47;;;;;;;3.10;2.38;;;36.50;37.30;;;;;;5095416;28;20073;-77
2021/08/15 10:30:15;;;;;;;4.15;1.77;;;36.40;36.70;;;;;;5108861;28;20111;-79
2021/08/15 10:32:56;;;;;;;2.63;1.67;;;36.20;36.80;;;;;;5112521;28;20080;-77
2021/08/15 10:35:22;;;;;;;3.97;1.90;;;36.10;36.90;;;;;;5111292;28;20483;-77
2021/08/15 10:37:54;;;;;;;2.83;1.83;;;36.00;37.00;;;;;;5109522;28;20023;-79
2021/08/15 10:40:45;;;;;;;4.78;2.05;;;36.00;37.00;;;;;;5094838;28;20016;-77
2021/08/15 10:43:34;;;;;;;3.47;1.80;;;36.20;37.10;;;;;;5103031;28;20032;-77
2021/08/15 10:46:18;;;;;;;3.45;1.70;;;36.20;37.30;;;;;;5054251;28;20274;-77
2021/08/15 10:49:01;;;;;;;3.53;1.75;;;36.20;36.80;;;;;;5097581;28;20368;-77
2021/08/15 10:51:52;;;;;;;6.82;2.20;;;36.10;37.00;;;;;;5095688;28;20076;-77
2021/08/15 10:54:27;;;;;;;3.70;1.70;;;35.90;37.30;;;;;;5106339;28;20098;-76
2021/08/15 10:56:55;;;;;;;3.55;1.88;;;36.20;37.10;;;;;;5106547;28;20047;-77
2021/08/15 10:59:33;;;;;;;3.78;1.83;;;36.20;36.60;;;;;;5103113;28;20036;-78
2021/08/15 11:02:18;;;;;;;2.67;2.10;;;36.20;36.60;;;;;;5099713;28;20020;-75
2021/08/15 11:04:58;;;;;;;7.20;1.95;;;36.10;37.00;;;;;;5096815;28;20036;-77
2021/08/15 11:07:38;;;;;;;3.30;1.95;;;36.10;37.00;;;;;;5109774;28;20034;-79
2021/08/15 11:10:08;;;;;;;3.58;1.88;;;36.30;36.80;;;;;;5104172;28;20084;-75
2021/08/15 11:12:34;;;;;;;3.75;1.90;;;36.40;37.10;;;;;;5112463;28;20043;-76
2021/08/15 11:15:04;;;;;;;4.70;1.70;;;36.50;37.10;;;;;;5091980;28;20031;-76
2021/08/15 11:17:32;;;;;;;2.67;1.60;;;36.40;37.00;;;;;;5105442;28;20349;-76
2021/08/15 11:20:29;;;;;;;4.43;1.48;;;36.10;37.30;;;;;;5103711;28;20024;-76
2021/08/15 11:23:07;;;;;;;3.70;1.67;;;35.80;37.50;;;;;;5112244;28;20467;-78
2021/08/15 11:25:32;;;;;;;3.60;1.85;;;35.70;37.20;;;;;;5109569;28;20104;-77
2021/08/15 11:27:58;;;;;;;5.40;1.70;;;35.60;37.30;;;;;;5096033;28;20028;-78
2021/08/15 11:30:24;;;;;;;3.35;1.90;;;35.50;37.40;;;;;;5088909;28;20028;-77
2021/08/15 11:32:55;;;;;;;4.70;1.77;;;35.70;37.50;;;;;;5104104;28;20028;-78
2021/08/15 11:35:22;;;;;;;3.53;1.80;;;35.70;37.60;;;;;;5106175;28;20471;-76
2021/08/15 11:37:51;;;;;;;2.90;1.60;;;35.80;37.40;;;;;;5084000;28;20339;-78
2021/08/15 11:40:23;;;;;;;3.53;1.73;;;35.80;37.40;;;;;;5104661;28;20031;-75
2021/08/15 11:42:56;;;;;;;4.85;1.98;;;35.80;37.10;;;;;;5111628;28;20031;-75
2021/08/15 11:45:51;;;;;;;4.22;1.90;;;35.80;37.10;;;;;;5113437;28;20048;-79
2021/08/15 11:48:28;;;;;;;3.80;1.80;;;35.90;37.20;;;;;;5074056;28;20421;-77
2021/08/15 11:51:02;;;;;;;3.92;1.80;;;35.90;37.10;;;;;;5111599;28;20024;-78
2021/08/15 11:53:30;;;;;;;5.05;1.98;;;35.80;36.80;;;;;;5108648;28;20024;-76
2021/08/15 11:55:57;;;;;;;5.07;1.92;;;35.60;37.40;;;;;;5101683;28;20028;-76
2021/08/15 11:58:24;;;;;;;7.93;2.15;;;35.50;37.30;;;;;;5107467;28;20028;-77
2021/08/15 12:00:51;;;;;;;3.47;1.98;;;35.40;37.70;;;;;;5106928;28;20028;-77
2021/08/15 12:03:17;;;;;;;5.40;2.20;;;35.30;37.40;;;;;;5113632;28;20090;-75
2021/08/15 12:05:47;;;;;;;6.10;2.10;;;35.20;37.40;;;;;;5105721;28;20059;-84
2021/08/15 12:08:21;;;;;;;4.82;1.90;;;35.10;38.00;;;;;;5115129;28;20059;-77
2021/08/15 12:10:49;;;;;;;3.80;1.55;;;35.00;37.90;;;;;;5112815;28;20078;-81
2021/08/15 12:13:18;;;;;;;3.13;1.95;;;35.00;38.00;;;;;;5097591;28;20027;-77
2021/08/15 12:15:51;;;;;;;3.35;1.95;;;35.00;37.50;;;;;;5094120;28;20024;-77
2021/08/15 12:18:29;;;;;;;4.53;2.20;;;35.00;37.20;;;;;;5102011;28;20020;-77
2021/08/15 12:20:57;;;;;;;4.05;1.98;;;34.90;37.50;;;;;;5094056;28;20047;-74
2021/08/15 12:23:23;;;;;;;3.22;1.60;;;34.70;37.40;;;;;;5112436;28;20360;-78
2021/08/15 12:26:09;;;;;;;6.72;1.85;;;34.50;37.90;;;;;;5112652;28;20041;-81
2021/08/15 12:28:38;;;;;;;5.80;2.47;;;34.40;37.70;;;;;;5094706;28;20034;-78
2021/08/15 12:31:24;;;;;;;4.32;2.00;;;34.40;38.20;;;;;;5092428;28;20426;-77
2021/08/15 12:33:51;;;;;;;3.60;2.15;;;34.30;38.70;;;;;;5093764;28;20091;-82
2021/08/15 12:36:22;;;;;;;3.67;1.95;;;34.20;38.50;;;;;;5105635;28;20024;-76
2021/08/15 12:38:49;;;;;;;5.88;2.28;;;34.00;38.70;;;;;;5093921;28;20499;-81
2021/08/15 12:41:29;;;;;;;3.65;1.73;;;33.90;39.50;;;;;;5102981;28;20077;-77